Time;durP1;ratioP1;P1;durP2;ratioP2;P2;SDS_P1;SDS_P2;PMS_P1;PMS_P2;Temp;Humidity;BMP_temperature;BMP_pressure;BME280_temperature;BME280_humidity;BME280_pressure;Samples;Min_cycle;Max_cycle;Signal;HPM_P1;HPM_P2
2022/08/20 00:00:14;;;;;;;6.28;4.03;;;;;;;;;;4987012;28;20418;-61
2022/08/20 00:02:42;;;;;;;7.88;4.25;;;;;;;;;;4986878;28;20478;-61
2022/08/20 00:05:07;;;;;;;8.27;4.07;;;;;;;;;;4989119;28;20364;-61
2022/08/20 00:07:33;;;;;;;8.88;4.20;;;;;;;;;;4986806;28;20571;-61
2022/08/20 00:09:58;;;;;;;8.25;3.85;;;;;;;;;;4986800;28;20084;-62
2022/08/20 00:12:24;;;;;;;5.72;4.32;;;;;;;;;;4988357;28;20087;-61
2022/08/20 00:14:49;;;;;;;8.13;5.18;;;;;;;;;;4986818;28;20501;-61
2022/08/20 00:17:15;;;;;;;6.03;4.28;;;;;;;;;;4986861;28;20025;-61
2022/08/20 00:19:40;;;;;;;7.93;4.57;;;;;;;;;;4987425;28;20368;-61
2022/08/20 00:22:06;;;;;;;8.68;4.40;;;;;;;;;;4988090;28;20437;-61
2022/08/20 00:24:31;;;;;;;8.73;4.10;;;;;;;;;;4987576;28;20444;-61
2022/08/20 00:26:57;;;;;;;7.30;4.47;;;;;;;;;;4987653;28;20341;-61
2022/08/20 00:29:22;;;;;;;6.63;4.22;;;;;;;;;;4986744;28;20440;-61
2022/08/20 00:31:48;;;;;;;9.05;4.85;;;;;;;;;;4986603;28;20581;-61
2022/08/20 00:34:14;;;;;;;6.40;4.75;;;;;;;;;;4986707;28;20347;-62
2022/08/20 00:36:39;;;;;;;7.13;4.63;;;;;;;;;;4986498;28;20317;-61
2022/08/20 00:39:04;;;;;;;8.45;4.10;;;;;;;;;;4986390;28;20465;-61
2022/08/20 00:41:30;;;;;;;14.05;5.50;;;;;;;;;;4986339;28;20478;-61
2022/08/20 00:44:04;;;;;;;8.82;4.72;;;;;;;;;;4986273;28;20096;-61
2022/08/20 00:46:30;;;;;;;5.63;4.45;;;;;;;;;;4986247;28;20403;-63
2022/08/20 00:48:57;;;;;;;8.43;4.47;;;;;;;;;;4986606;28;20340;-63
2022/08/20 00:51:28;;;;;;;9.20;4.50;;;;;;;;;;4986882;28;20059;-61
2022/08/20 00:53:59;;;;;;;6.57;4.72;;;;;;;;;;4969124;28;20355;-62
2022/08/20 00:56:24;;;;;;;5.53;3.83;;;;;;;;;;4987468;28;20383;-61
2022/08/20 00:58:51;;;;;;;7.47;4.40;;;;;;;;;;4968379;28;20380;-61
2022/08/20 01:01:16;;;;;;;9.93;4.18;;;;;;;;;;4986061;28;20432;-61
2022/08/20 01:03:42;;;;;;;8.02;4.28;;;;;;;;;;4961368;28;20479;-62
2022/08/20 01:06:10;;;;;;;8.10;4.30;;;;;;;;;;4971202;28;20479;-61
2022/08/20 01:08:37;;;;;;;6.60;4.55;;;;;;;;;;4970386;28;20387;-61
2022/08/20 01:11:15;;;;;;;6.43;3.88;;;;;;;;;;4952644;28;20034;-61
2022/08/20 01:13:42;;;;;;;8.98;4.47;;;;;;;;;;4970465;28;20360;-61
2022/08/20 01:16:18;;;;;;;8.18;4.38;;;;;;;;;;4971186;28;20463;-60
2022/08/20 01:18:45;;;;;;;5.47;3.97;;;;;;;;;;4952613;28;20339;-61
2022/08/20 01:21:10;;;;;;;6.28;4.05;;;;;;;;;;4970283;28;20465;-61
2022/08/20 01:23:56;;;;;;;6.60;4.50;;;;;;;;;;4970168;28;20562;-61
2022/08/20 01:26:36;;;;;;;7.35;4.22;;;;;;;;;;4952425;28;20325;-61
2022/08/20 01:29:03;;;;;;;9.45;3.65;;;;;;;;;;4953320;28;20512;-61
2022/08/20 01:31:32;;;;;;;8.32;4.68;;;;;;;;;;4952563;28;20455;-61
2022/08/20 01:33:59;;;;;;;6.82;3.92;;;;;;;;;;4970107;28;20389;-61
2022/08/20 01:36:30;;;;;;;7.63;5.38;;;;;;;;;;4969980;28;20349;-61
2022/08/20 01:38:57;;;;;;;9.48;4.22;;;;;;;;;;4953567;28;20187;-60
2022/08/20 01:41:25;;;;;;;8.93;3.75;;;;;;;;;;4971102;28;20033;-61
2022/08/20 01:43:56;;;;;;;9.23;4.65;;;;;;;;;;4970844;28;20189;-61
2022/08/20 01:46:24;;;;;;;7.90;4.30;;;;;;;;;;4970758;28;20326;-61
2022/08/20 01:48:50;;;;;;;11.82;3.85;;;;;;;;;;4989407;28;20029;-61
2022/08/20 01:51:20;;;;;;;9.88;4.07;;;;;;;;;;4972481;28;20459;-61
2022/08/20 01:53:48;;;;;;;7.55;3.55;;;;;;;;;;4990781;28;20459;-60
2022/08/20 01:56:17;;;;;;;8.40;4.53;;;;;;;;;;4991293;28;20505;-60
2022/08/20 01:58:51;;;;;;;8.13;4.13;;;;;;;;;;4990605;28;20511;-61
2022/08/20 02:01:47;;;;;;;9.52;4.50;;;;;;;;;;4990347;28;20454;-61
2022/08/20 02:04:13;;;;;;;7.03;4.13;;;;;;;;;;4990338;28;20325;-61
2022/08/20 02:06:43;;;;;;;6.03;3.88;;;;;;;;;;4990453;28;20052;-61
2022/08/20 02:09:11;;;;;;;4.57;3.78;;;;;;;;;;4990574;28;20431;-61
2022/08/20 02:11:36;;;;;;;8.10;3.92;;;;;;;;;;4990683;28;20412;-61
2022/08/20 02:14:05;;;;;;;7.93;4.20;;;;;;;;;;4990206;28;20465;-61
2022/08/20 02:16:35;;;;;;;6.18;4.38;;;;;;;;;;4990767;28;20033;-61
2022/08/20 02:19:08;;;;;;;8.75;4.50;;;;;;;;;;4990348;28;20048;-61
2022/08/20 02:21:33;;;;;;;8.63;4.28;;;;;;;;;;4989837;28;20344;-61
2022/08/20 02:23:59;;;;;;;9.32;3.97;;;;;;;;;;4991434;28;20354;-61
2022/08/20 02:26:25;;;;;;;7.20;3.83;;;;;;;;;;4990060;28;20060;-61
2022/08/20 02:28:52;;;;;;;5.50;3.65;;;;;;;;;;4990085;28;20083;-61
2022/08/20 02:31:19;;;;;;;4.78;3.53;;;;;;;;;;4990609;28;20333;-61
2022/08/20 02:33:45;;;;;;;6.40;4.28;;;;;;;;;;4990391;28;20029;-61
2022/08/20 02:36:12;;;;;;;7.50;4.03;;;;;;;;;;4990944;28;20102;-61
2022/08/20 02:38:39;;;;;;;8.10;4.10;;;;;;;;;;4989788;28;20451;-61
2022/08/20 02:41:05;;;;;;;9.40;4.68;;;;;;;;;;4989763;28;20398;-61
2022/08/20 02:43:31;;;;;;;8.50;3.50;;;;;;;;;;4991041;28;20093;-62
2022/08/20 02:45:58;;;;;;;6.20;4.10;;;;;;;;;;4990512;28;20387;-61
2022/08/20 02:48:24;;;;;;;6.97;4.07;;;;;;;;;;4989530;28;20352;-61
2022/08/20 02:50:56;;;;;;;6.65;3.97;;;;;;;;;;4990347;28;20017;-61
2022/08/20 02:53:23;;;;;;;10.10;3.85;;;;;;;;;;4990785;28;20344;-61
2022/08/20 02:55:49;;;;;;;5.40;3.22;;;;;;;;;;4989339;28;20446;-61
2022/08/20 02:58:15;;;;;;;7.32;3.90;;;;;;;;;;4989388;28;20364;-61
2022/08/20 03:00:40;;;;;;;7.28;3.92;;;;;;;;;;4989356;28;20131;-61
2022/08/20 03:03:08;;;;;;;4.97;3.28;;;;;;;;;;4989467;28;20436;-61
2022/08/20 03:05:34;;;;;;;6.63;3.67;;;;;;;;;;4990872;28;20423;-61
2022/08/20 03:08:00;;;;;;;7.88;4.10;;;;;;;;;;4990762;28;20436;-61
2022/08/20 03:10:28;;;;;;;7.05;4.50;;;;;;;;;;4989778;28;20513;-61
2022/08/20 03:12:54;;;;;;;5.55;3.63;;;;;;;;;;4989028;28;20443;-61
2022/08/20 03:15:20;;;;;;;8.52;4.07;;;;;;;;;;4989570;28;20605;-61
2022/08/20 03:17:45;;;;;;;6.65;3.55;;;;;;;;;;4990498;28;20424;-61
2022/08/20 03:20:11;;;;;;;5.35;3.70;;;;;;;;;;4989233;28;20033;-61
2022/08/20 03:22:37;;;;;;;6.43;3.45;;;;;;;;;;4989270;28;20452;-61
2022/08/20 03:25:03;;;;;;;8.52;3.63;;;;;;;;;;4989066;28;20110;-61
2022/08/20 03:27:28;;;;;;;7.57;4.20;;;;;;;;;;4989029;28;20344;-61
2022/08/20 03:29:54;;;;;;;5.00;3.97;;;;;;;;;;4988863;28;20377;-61
2022/08/20 03:32:19;;;;;;;6.85;4.03;;;;;;;;;;4989018;28;20060;-61
2022/08/20 03:34:45;;;;;;;7.85;3.70;;;;;;;;;;4988476;28;20450;-61
2022/08/20 03:37:10;;;;;;;6.18;4.15;;;;;;;;;;4988631;28;20343;-61
2022/08/20 03:39:36;;;;;;;6.82;4.55;;;;;;;;;;4989324;28;20343;-61
2022/08/20 03:42:02;;;;;;;5.55;3.95;;;;;;;;;;4988949;28;20094;-61
2022/08/20 03:44:27;;;;;;;6.72;3.88;;;;;;;;;;4989701;28;20482;-61
2022/08/20 03:46:53;;;;;;;6.53;3.92;;;;;;;;;;4988738;28;20056;-61
2022/08/20 03:49:18;;;;;;;5.65;3.72;;;;;;;;;;4988739;28;20515;-61
2022/08/20 03:51:43;;;;;;;6.10;3.50;;;;;;;;;;4989230;28;20530;-61
2022/08/20 03:54:09;;;;;;;7.90;4.03;;;;;;;;;;4989802;28;20129;-61
2022/08/20 03:56:34;;;;;;;6.85;4.38;;;;;;;;;;4988348;28;20040;-61
2022/08/20 03:59:00;;;;;;;5.78;3.47;;;;;;;;;;4988533;28;20352;-61
2022/08/20 04:01:25;;;;;;;6.07;3.70;;;;;;;;;;4988326;28;20343;-64
2022/08/20 04:03:50;;;;;;;7.00;3.88;;;;;;;;;;4988340;28;20313;-61
2022/08/20 04:06:17;;;;;;;6.15;3.70;;;;;;;;;;4988412;28;20393;-61
2022/08/20 04:08:42;;;;;;;5.45;3.75;;;;;;;;;;4988051;28;20336;-61
2022/08/20 04:11:08;;;;;;;5.80;3.63;;;;;;;;;;4988373;28;20343;-61
2022/08/20 04:13:33;;;;;;;6.93;4.60;;;;;;;;;;4987992;28;20111;-61
2022/08/20 04:16:07;;;;;;;5.32;3.58;;;;;;;;;;4987867;28;20372;-61
2022/08/20 04:18:35;;;;;;;6.05;4.13;;;;;;;;;;4988816;28;20440;-61
2022/08/20 04:21:00;;;;;;;5.35;3.13;;;;;;;;;;4987790;28;20102;-61
2022/08/20 04:23:25;;;;;;;5.07;3.25;;;;;;;;;;4988450;28;20025;-61
2022/08/20 04:25:51;;;;;;;3.75;3.15;;;;;;;;;;4987911;28;20473;-61
2022/08/20 04:28:28;;;;;;;6.75;3.58;;;;;;;;;;4987784;28;20044;-61
2022/08/20 04:30:56;;;;;;;4.80;3.25;;;;;;;;;;4987735;28;20479;-61
2022/08/20 04:33:25;;;;;;;7.45;3.78;;;;;;;;;;4987872;28;20339;-61
2022/08/20 04:35:51;;;;;;;4.78;3.20;;;;;;;;;;4987376;28;20457;-61
2022/08/20 04:38:18;;;;;;;7.22;3.35;;;;;;;;;;4988219;28;20021;-61
2022/08/20 04:40:53;;;;;;;5.35;2.78;;;;;;;;;;4988682;28;20098;-61
2022/08/20 04:43:26;;;;;;;5.07;2.83;;;;;;;;;;4987520;28;20362;-61
2022/08/20 04:45:56;;;;;;;5.15;3.33;;;;;;;;;;4987238;28;20446;-61
2022/08/20 04:48:22;;;;;;;4.38;3.10;;;;;;;;;;4987483;28;20483;-60
2022/08/20 04:50:48;;;;;;;5.22;2.83;;;;;;;;;;4989380;28;20416;-61
2022/08/20 04:53:16;;;;;;;5.10;3.67;;;;;;;;;;4987515;28;20508;-62
2022/08/20 04:55:44;;;;;;;14.40;3.35;;;;;;;;;;4987506;28;20444;-61
2022/08/20 04:58:34;;;;;;;4.88;3.30;;;;;;;;;;4987724;28;20047;-61
2022/08/20 05:01:03;;;;;;;7.90;3.30;;;;;;;;;;4975245;28;20471;-61
2022/08/20 05:03:29;;;;;;;5.65;4.07;;;;;;;;;;4987322;28;20352;-61
2022/08/20 05:05:55;;;;;;;3.33;2.83;;;;;;;;;;4988494;28;20048;-61
2022/08/20 05:08:22;;;;;;;6.97;3.38;;;;;;;;;;4987407;28;20475;-61
2022/08/20 05:10:48;;;;;;;5.25;3.38;;;;;;;;;;4987436;28;20344;-61
2022/08/20 05:13:13;;;;;;;5.68;3.08;;;;;;;;;;4987647;28;20313;-61
2022/08/20 05:15:39;;;;;;;7.95;3.17;;;;;;;;;;4987280;28;20456;-62
2022/08/20 05:18:06;;;;;;;5.18;3.50;;;;;;;;;;4988288;28;20373;-61
2022/08/20 05:20:38;;;;;;;7.03;3.25;;;;;;;;;;4989156;28;20495;-61
2022/08/20 05:23:05;;;;;;;6.68;3.60;;;;;;;;;;4988444;28;20094;-61
2022/08/20 05:25:31;;;;;;;6.05;3.95;;;;;;;;;;4989657;28;20436;-61
2022/08/20 05:28:08;;;;;;;6.72;3.67;;;;;;;;;;4987262;28;20311;-61
2022/08/20 05:30:35;;;;;;;9.02;3.85;;;;;;;;;;4987781;28;20043;-61
2022/08/20 05:33:03;;;;;;;5.13;3.40;;;;;;;;;;4987546;28;20482;-61
2022/08/20 05:35:30;;;;;;;6.72;3.95;;;;;;;;;;4987129;28;20428;-61
2022/08/20 05:37:56;;;;;;;8.95;3.92;;;;;;;;;;4987251;28;20340;-61
2022/08/20 05:40:22;;;;;;;5.70;4.22;;;;;;;;;;4987307;28;20513;-61
2022/08/20 05:42:48;;;;;;;7.63;3.50;;;;;;;;;;4987205;28;20427;-62
2022/08/20 05:45:16;;;;;;;9.13;4.20;;;;;;;;;;4986954;28;20116;-61
2022/08/20 05:47:42;;;;;;;6.33;4.37;;;;;;;;;;4989070;28;20390;-61
2022/08/20 05:50:08;;;;;;;9.15;4.40;;;;;;;;;;4990690;28;20055;-61
2022/08/20 05:52:33;;;;;;;9.80;3.83;;;;;;;;;;4991124;28;20542;-61
2022/08/20 05:54:59;;;;;;;4.00;3.00;;;;;;;;;;4990542;28;20347;-61
2022/08/20 05:57:24;;;;;;;7.60;3.58;;;;;;;;;;4990608;28;20521;-61
2022/08/20 05:59:50;;;;;;;6.80;3.47;;;;;;;;;;4990580;28;20419;-61
2022/08/20 06:04:59;;;;;;;5.75;3.42;;;;;;;;;;4991653;28;20513;-61
2022/08/20 06:07:24;;;;;;;5.85;3.22;;;;;;;;;;4991292;28;20395;-61
2022/08/20 06:09:50;;;;;;;4.60;3.40;;;;;;;;;;4990339;28;20450;-61
2022/08/20 06:12:15;;;;;;;9.23;3.75;;;;;;;;;;4991225;28;20336;-61
2022/08/20 06:14:41;;;;;;;7.18;3.33;;;;;;;;;;4990162;28;20379;-61
2022/08/20 06:17:10;;;;;;;5.65;3.33;;;;;;;;;;4990247;28;20021;-61
2022/08/20 06:19:36;;;;;;;5.75;3.00;;;;;;;;;;4990114;28;20114;-61
2022/08/20 06:22:03;;;;;;;9.68;3.72;;;;;;;;;;4990192;28;20493;-61
2022/08/20 06:24:28;;;;;;;6.53;3.97;;;;;;;;;;4990339;28;20343;-61
2022/08/20 06:26:57;;;;;;;8.57;3.83;;;;;;;;;;4989962;28;20021;-61
2022/08/20 06:29:23;;;;;;;7.88;3.92;;;;;;;;;;4989996;28;20490;-61
2022/08/20 06:31:48;;;;;;;7.93;4.20;;;;;;;;;;4990449;28;20064;-61
2022/08/20 06:34:14;;;;;;;6.65;3.92;;;;;;;;;;4989820;28;20347;-61
2022/08/20 06:36:39;;;;;;;7.38;3.65;;;;;;;;;;4991368;28;20575;-61
2022/08/20 06:39:04;;;;;;;8.50;3.25;;;;;;;;;;4990281;28;20386;-61
2022/08/20 06:41:30;;;;;;;5.32;3.20;;;;;;;;;;4989755;28;20448;-61
2022/08/20 06:43:55;;;;;;;5.60;3.50;;;;;;;;;;4989418;28;20533;-61
2022/08/20 06:46:22;;;;;;;6.43;3.05;;;;;;;;;;4990161;28;20347;-61
2022/08/20 06:48:48;;;;;;;4.25;2.72;;;;;;;;;;4989699;28;20346;-61
2022/08/20 06:51:13;;;;;;;8.60;4.10;;;;;;;;;;4989724;28;20056;-61
2022/08/20 06:53:38;;;;;;;9.02;3.65;;;;;;;;;;4991209;28;20428;-61
2022/08/20 06:56:04;;;;;;;4.00;3.15;;;;;;;;;;4989980;28;20093;-61
2022/08/20 06:58:31;;;;;;;7.40;3.40;;;;;;;;;;4989146;28;20370;-61
2022/08/20 07:00:58;;;;;;;5.80;3.15;;;;;;;;;;4989502;28;20364;-61
2022/08/20 07:03:24;;;;;;;6.45;3.00;;;;;;;;;;4989494;28;20466;-61
2022/08/20 07:05:49;;;;;;;3.20;2.70;;;;;;;;;;4989484;28;20459;-61
2022/08/20 07:08:17;;;;;;;6.32;3.22;;;;;;;;;;4989193;28;20395;-61
2022/08/20 07:10:43;;;;;;;6.22;3.10;;;;;;;;;;4989693;28;20431;-61
2022/08/20 07:13:10;;;;;;;5.38;3.03;;;;;;;;;;4989248;28;20313;-61
2022/08/20 07:15:36;;;;;;;3.70;2.87;;;;;;;;;;4989161;28;20443;-62
2022/08/20 07:18:04;;;;;;;8.18;3.05;;;;;;;;;;4989711;28;20462;-63
2022/08/20 07:20:30;;;;;;;6.00;3.08;;;;;;;;;;4989992;28;20428;-61
2022/08/20 07:22:56;;;;;;;4.80;2.90;;;;;;;;;;4988876;28;20428;-61
2022/08/20 07:25:22;;;;;;;5.05;2.80;;;;;;;;;;4989197;28;20360;-61
2022/08/20 07:27:47;;;;;;;7.25;3.22;;;;;;;;;;4989142;28;20427;-61
2022/08/20 07:33:00;;;;;;;5.50;3.08;;;;;;;;;;4989791;28;20454;-61
2022/08/20 07:35:26;;;;;;;6.45;3.15;;;;;;;;;;4988669;28;20436;-62
2022/08/20 07:37:53;;;;;;;6.85;3.08;;;;;;;;;;4988772;28;20455;-61
2022/08/20 07:40:22;;;;;;;3.97;2.72;;;;;;;;;;4988753;28;20373;-61
2022/08/20 07:42:49;;;;;;;12.65;2.83;;;;;;;;;;4988615;28;20025;-61
2022/08/20 07:45:17;;;;;;;5.63;3.30;;;;;;;;;;4988367;28;20423;-61
2022/08/20 07:47:42;;;;;;;6.22;2.85;;;;;;;;;;4988563;28;20427;-61
2022/08/20 07:50:11;;;;;;;10.82;3.10;;;;;;;;;;4990122;28;20412;-61
2022/08/20 07:52:36;;;;;;;6.32;2.83;;;;;;;;;;4988335;28;20131;-61
2022/08/20 07:55:08;;;;;;;4.40;2.80;;;;;;;;;;4988731;28;20439;-61
2022/08/20 07:57:33;;;;;;;5.55;3.25;;;;;;;;;;4988507;28;20511;-61
2022/08/20 07:59:59;;;;;;;6.32;2.90;;;;;;;;;;4989309;28;20335;-61
2022/08/20 08:02:27;;;;;;;5.60;3.33;;;;;;;;;;4990487;28;20410;-61
2022/08/20 08:04:53;;;;;;;;;;;;;;;;;;4989000;28;20352;-61
2022/08/20 08:07:18;;;;;;;5.53;3.10;;;;;;;;;;4988397;28;19909;-62
2022/08/20 08:09:45;;;;;;;6.40;2.88;;;;;;;;;;4970140;28;20436;-61
2022/08/20 08:12:12;;;;;;;5.30;2.92;;;;;;;;;;4970220;28;20115;-61
2022/08/20 08:14:38;;;;;;;8.95;3.28;;;;;;;;;;4989488;28;20447;-61
2022/08/20 08:17:04;;;;;;;5.63;2.65;;;;;;;;;;4989072;28;20321;-61
2022/08/20 08:19:37;;;;;;;4.38;2.97;;;;;;;;;;4988612;28;20446;-62
2022/08/20 08:22:04;;;;;;;5.47;2.80;;;;;;;;;;4987997;28;20024;-61
2022/08/20 08:24:30;;;;;;;3.90;2.53;;;;;;;;;;4988676;28;20443;-61
2022/08/20 08:26:55;;;;;;;6.88;2.85;;;;;;;;;;4987946;28;20433;-61
2022/08/20 08:29:20;;;;;;;6.93;3.30;;;;;;;;;;4988116;28;20037;-61
2022/08/20 08:31:46;;;;;;;5.07;3.50;;;;;;;;;;4988112;28;20428;-61
2022/08/20 08:34:12;;;;;;;4.68;3.05;;;;;;;;;;4969059;28;20502;-61
2022/08/20 08:36:38;;;;;;;6.75;2.70;;;;;;;;;;4986616;28;20390;-61
2022/08/20 08:39:04;;;;;;;3.78;2.42;;;;;;;;;;4986454;28;20455;-61
2022/08/20 08:41:32;;;;;;;6.57;3.33;;;;;;;;;;4986307;28;20544;-63
2022/08/20 08:44:08;;;;;;;5.90;3.40;;;;;;;;;;4986216;28;20379;-62
2022/08/20 08:46:39;;;;;;;4.07;2.80;;;;;;;;;;4967613;28;20091;-62
2022/08/20 08:49:04;;;;;;;5.53;2.75;;;;;;;;;;4968628;28;20349;-61
2022/08/20 08:51:43;;;;;;;6.72;2.92;;;;;;;;;;4987085;28;20098;-65
2022/08/20 08:54:15;;;;;;;5.57;2.47;;;;;;;;;;4988556;28;20512;-62
2022/08/20 08:56:42;;;;;;;4.32;2.72;;;;;;;;;;4986799;28;20435;-61
2022/08/20 08:59:07;;;;;;;6.03;3.15;;;;;;;;;;4970350;28;20021;-61
2022/08/20 09:01:39;;;;;;;5.35;2.65;;;;;;;;;;4987484;28;20060;-61
2022/08/20 09:04:04;;;;;;;5.80;2.95;;;;;;;;;;4985992;28;20025;-62
2022/08/20 09:06:31;;;;;;;5.22;2.72;;;;;;;;;;4968960;28;20033;-62
2022/08/20 09:09:02;;;;;;;4.28;2.53;;;;;;;;;;4986163;28;20469;-61
2022/08/20 09:11:28;;;;;;;4.47;2.60;;;;;;;;;;4988120;28;20390;-62
2022/08/20 09:13:54;;;;;;;4.63;2.75;;;;;;;;;;4986576;28;20479;-61
2022/08/20 09:16:21;;;;;;;3.88;2.65;;;;;;;;;;4986465;28;20363;-62
2022/08/20 09:18:47;;;;;;;4.90;3.07;;;;;;;;;;4986816;28;20423;-62
2022/08/20 09:21:13;;;;;;;5.28;2.75;;;;;;;;;;4986287;28;20794;-62
2022/08/20 09:23:39;;;;;;;5.25;3.13;;;;;;;;;;4989956;28;20499;-61
2022/08/20 09:26:05;;;;;;;5.20;2.70;;;;;;;;;;4990097;28;20060;-62
2022/08/20 09:28:30;;;;;;;5.38;2.90;;;;;;;;;;4990051;28;20497;-62
2022/08/20 09:30:55;;;;;;;6.82;3.22;;;;;;;;;;4989813;28;20454;-62
2022/08/20 09:33:21;;;;;;;4.95;2.78;;;;;;;;;;4990318;28;20387;-62
2022/08/20 09:35:46;;;;;;;6.72;2.65;;;;;;;;;;4990893;28;20374;-61
2022/08/20 09:38:12;;;;;;;7.70;3.08;;;;;;;;;;4989996;28;20431;-61
2022/08/20 09:40:37;;;;;;;4.47;2.92;;;;;;;;;;4971910;28;20048;-62
2022/08/20 09:43:07;;;;;;;6.35;2.40;;;;;;;;;;4991843;28;20371;-63
2022/08/20 09:45:32;;;;;;;5.55;2.63;;;;;;;;;;4989745;28;20452;-61
2022/08/20 09:47:58;;;;;;;11.38;3.28;;;;;;;;;;4989509;28;20424;-61
2022/08/20 09:50:29;;;;;;;12.07;3.58;;;;;;;;;;4989598;28;20440;-61
2022/08/20 09:52:55;;;;;;;4.53;2.95;;;;;;;;;;4989405;28;20398;-62
2022/08/20 09:55:34;;;;;;;4.72;2.95;;;;;;;;;;4971410;28;20609;-63
2022/08/20 09:58:02;;;;;;;7.95;3.10;;;;;;;;;;4989261;28;20321;-62
2022/08/20 10:00:27;;;;;;;6.50;3.08;;;;;;;;;;4989173;28;20029;-62
2022/08/20 10:02:52;;;;;;;7.13;2.70;;;;;;;;;;4990346;28;20051;-61
2022/08/20 10:05:18;;;;;;;10.27;3.15;;;;;;;;;;4991309;28;20523;-61
2022/08/20 10:07:43;;;;;;;5.00;3.20;;;;;;;;;;4991159;28;20356;-62
2022/08/20 10:10:11;;;;;;;4.18;3.05;;;;;;;;;;4989296;28;20469;-63
2022/08/20 10:12:36;;;;;;;3.95;2.83;;;;;;;;;;4990507;28;20497;-62
2022/08/20 10:15:03;;;;;;;4.57;3.22;;;;;;;;;;4990407;28;20523;-62
2022/08/20 10:17:28;;;;;;;6.70;3.15;;;;;;;;;;4989029;28;20021;-62
2022/08/20 10:19:53;;;;;;;6.95;3.20;;;;;;;;;;4989076;28;20048;-62
2022/08/20 10:22:19;;;;;;;4.97;3.00;;;;;;;;;;4988932;28;20446;-63
2022/08/20 10:24:44;;;;;;;7.20;2.80;;;;;;;;;;4988872;28;20451;-62
2022/08/20 10:27:09;;;;;;;7.43;2.72;;;;;;;;;;4989142;28;20419;-62
2022/08/20 10:29:35;;;;;;;3.80;2.97;;;;;;;;;;4989375;28;20514;-63
2022/08/20 10:32:13;;;;;;;7.43;3.22;;;;;;;;;;4990663;28;20467;-62
2022/08/20 10:34:39;;;;;;;5.50;3.40;;;;;;;;;;4988322;28;20470;-62
2022/08/20 10:37:05;;;;;;;7.78;3.33;;;;;;;;;;4988811;28;20412;-62
2022/08/20 10:39:30;;;;;;;10.27;3.70;;;;;;;;;;4988578;28;20455;-61
2022/08/20 10:41:56;;;;;;;6.07;2.92;;;;;;;;;;4988614;28;20029;-62
2022/08/20 10:44:21;;;;;;;8.98;3.67;;;;;;;;;;4988354;28;20435;-61
2022/08/20 10:46:46;;;;;;;4.68;3.25;;;;;;;;;;4988785;28;20513;-61
2022/08/20 10:49:12;;;;;;;7.40;3.42;;;;;;;;;;4988463;28;20029;-62
2022/08/20 10:51:37;;;;;;;7.20;3.40;;;;;;;;;;4988796;28;20541;-62
2022/08/20 10:54:02;;;;;;;4.72;3.20;;;;;;;;;;4988348;28;20348;-61
2022/08/20 10:56:28;;;;;;;8.35;2.97;;;;;;;;;;4988572;28;20417;-61
2022/08/20 10:58:53;;;;;;;5.43;3.33;;;;;;;;;;4989064;28;20024;-62
2022/08/20 11:01:18;;;;;;;6.28;3.13;;;;;;;;;;4988636;28;20343;-62
2022/08/20 11:03:44;;;;;;;7.28;3.10;;;;;;;;;;4989132;28;20454;-62
2022/08/20 11:06:09;;;;;;;7.10;3.08;;;;;;;;;;4989814;28;20496;-63
2022/08/20 11:08:35;;;;;;;9.75;2.95;;;;;;;;;;4990793;28;20108;-62
2022/08/20 11:11:00;;;;;;;7.25;3.30;;;;;;;;;;4989298;28;20450;-65
2022/08/20 11:13:25;;;;;;;5.05;2.47;;;;;;;;;;4970750;28;20470;-62
2022/08/20 11:15:51;;;;;;;6.60;3.83;;;;;;;;;;4988918;28;20029;-62
2022/08/20 11:18:17;;;;;;;6.00;2.40;;;;;;;;;;4989210;28;20095;-62
2022/08/20 11:20:42;;;;;;;5.68;2.92;;;;;;;;;;4970887;28;20396;-62
2022/08/20 11:23:07;;;;;;;4.68;2.63;;;;;;;;;;4988756;28;20465;-62
2022/08/20 11:25:33;;;;;;;7.38;3.28;;;;;;;;;;4988405;28;20513;-62
2022/08/20 11:27:58;;;;;;;4.93;2.90;;;;;;;;;;4988199;28;20370;-62
2022/08/20 11:30:30;;;;;;;4.75;2.53;;;;;;;;;;4988450;28;20324;-62
2022/08/20 11:32:56;;;;;;;6.43;2.97;;;;;;;;;;4987704;28;20535;-62
2022/08/20 11:35:23;;;;;;;7.25;2.92;;;;;;;;;;4988174;28;20462;-62
2022/08/20 11:37:53;;;;;;;7.60;3.53;;;;;;;;;;4987774;28;20021;-62
2022/08/20 11:40:18;;;;;;;6.68;2.85;;;;;;;;;;4987864;28;20340;-62
2022/08/20 11:42:46;;;;;;;7.68;3.10;;;;;;;;;;4987602;28;20352;-62
2022/08/20 11:45:12;;;;;;;5.15;2.35;;;;;;;;;;4987122;28;20460;-62
2022/08/20 11:47:37;;;;;;;4.03;2.65;;;;;;;;;;4988720;28;20396;-62
2022/08/20 11:50:16;;;;;;;4.68;3.13;;;;;;;;;;4987799;28;20046;-62
2022/08/20 11:52:42;;;;;;;7.25;3.15;;;;;;;;;;4988192;28;20432;-62
2022/08/20 11:55:09;;;;;;;5.93;3.10;;;;;;;;;;4988030;28;20482;-62
2022/08/20 11:57:36;;;;;;;3.72;2.70;;;;;;;;;;4969718;28;20435;-63
2022/08/20 12:00:06;;;;;;;5.25;2.72;;;;;;;;;;4988452;28;20305;-63
2022/08/20 12:02:31;;;;;;;8.00;3.38;;;;;;;;;;4987601;28;20451;-62
2022/08/20 12:04:56;;;;;;;4.32;2.75;;;;;;;;;;4987207;28;20506;-62
2022/08/20 12:07:23;;;;;;;7.15;2.70;;;;;;;;;;4988783;28;20375;-62
2022/08/20 12:09:49;;;;;;;5.75;3.13;;;;;;;;;;4988928;28;20055;-62
2022/08/20 12:12:16;;;;;;;7.80;3.80;;;;;;;;;;4970306;28;20549;-61
2022/08/20 12:14:42;;;;;;;7.20;3.38;;;;;;;;;;4989099;28;20497;-61
2022/08/20 12:17:13;;;;;;;7.97;4.40;;;;;;;;;;4988597;28;20644;-62
2022/08/20 12:19:40;;;;;;;5.55;3.22;;;;;;;;;;4987920;28;20439;-62
2022/08/20 12:22:06;;;;;;;6.60;3.60;;;;;;;;;;4987222;28;20436;-62
2022/08/20 12:24:32;;;;;;;5.88;3.20;;;;;;;;;;4987970;28;20316;-62
2022/08/20 12:27:09;;;;;;;9.85;3.95;;;;;;;;;;4987110;28;20087;-62
2022/08/20 12:29:36;;;;;;;9.82;3.97;;;;;;;;;;4987736;28;20059;-61
2022/08/20 12:32:04;;;;;;;7.07;3.35;;;;;;;;;;4989257;28;20442;-62
2022/08/20 12:34:30;;;;;;;6.10;3.47;;;;;;;;;;4987444;28;20498;-62
2022/08/20 12:37:04;;;;;;;9.65;3.25;;;;;;;;;;4987500;28;20371;-61
2022/08/20 12:39:32;;;;;;;10.43;4.30;;;;;;;;;;4987283;28;20383;-61
2022/08/20 12:41:58;;;;;;;7.20;3.80;;;;;;;;;;4987592;28;20436;-61
2022/08/20 12:44:23;;;;;;;8.10;3.88;;;;;;;;;;4987359;28;20391;-62
2022/08/20 12:46:49;;;;;;;5.70;3.58;;;;;;;;;;4987519;28;20364;-61
2022/08/20 12:49:15;;;;;;;6.40;3.90;;;;;;;;;;4987303;28;20426;-62
2022/08/20 12:51:40;;;;;;;8.15;3.80;;;;;;;;;;4989190;28;20033;-61
2022/08/20 12:54:05;;;;;;;8.73;4.13;;;;;;;;;;4986872;28;20549;-62
2022/08/20 12:56:31;;;;;;;6.82;3.83;;;;;;;;;;4988196;28;20469;-61
2022/08/20 12:58:56;;;;;;;10.45;3.85;;;;;;;;;;4987943;28;20514;-63
2022/08/20 13:01:21;;;;;;;11.30;4.00;;;;;;;;;;4987261;28;20387;-61
2022/08/20 13:03:47;;;;;;;11.30;4.03;;;;;;;;;;4987591;28;20390;-61
2022/08/20 13:06:12;;;;;;;8.05;4.20;;;;;;;;;;4988041;28;20048;-61
2022/08/20 13:08:37;;;;;;;10.57;3.92;;;;;;;;;;4987210;28;20650;-61
2022/08/20 13:11:03;;;;;;;8.88;4.65;;;;;;;;;;4987219;28;20535;-62
2022/08/20 13:13:28;;;;;;;6.43;3.40;;;;;;;;;;4987577;28;20368;-61
2022/08/20 13:15:53;;;;;;;8.32;4.00;;;;;;;;;;4987043;28;20408;-61
2022/08/20 13:18:19;;;;;;;7.78;3.60;;;;;;;;;;4968978;28;20092;-61
2022/08/20 13:20:44;;;;;;;8.90;4.18;;;;;;;;;;4987055;28;20420;-62
2022/08/20 13:23:10;;;;;;;6.50;3.33;;;;;;;;;;4968699;28;20091;-62
2022/08/20 13:25:35;;;;;;;9.95;4.20;;;;;;;;;;4985960;28;20520;-62
2022/08/20 13:28:03;;;;;;;10.60;3.90;;;;;;;;;;4985845;28;20420;-61
2022/08/20 13:30:28;;;;;;;8.23;4.00;;;;;;;;;;4985751;28;20470;-61
2022/08/20 13:32:54;;;;;;;10.65;3.78;;;;;;;;;;4985921;28;20432;-62
2022/08/20 13:35:19;;;;;;;5.80;3.30;;;;;;;;;;4986351;28;20321;-62
2022/08/20 13:37:46;;;;;;;8.75;3.72;;;;;;;;;;4985763;28;20532;-61
2022/08/20 13:40:12;;;;;;;6.88;4.10;;;;;;;;;;4987577;28;20360;-62
2022/08/20 13:42:37;;;;;;;7.60;3.75;;;;;;;;;;4987270;28;20395;-61
2022/08/20 13:45:03;;;;;;;8.75;4.25;;;;;;;;;;4986614;28;20071;-61
2022/08/20 13:47:33;;;;;;;7.47;3.60;;;;;;;;;;4986777;28;20025;-61
2022/08/20 13:50:14;;;;;;;8.95;3.88;;;;;;;;;;4987853;28;20043;-62
2022/08/20 13:52:39;;;;;;;9.05;3.92;;;;;;;;;;4986856;28;20431;-61
2022/08/20 13:55:07;;;;;;;7.20;4.05;;;;;;;;;;4988421;28;20485;-61
2022/08/20 13:57:33;;;;;;;11.30;4.38;;;;;;;;;;4988077;28;20381;-61
2022/08/20 13:59:59;;;;;;;9.60;3.78;;;;;;;;;;4968921;28;20095;-61
2022/08/20 14:02:25;;;;;;;10.32;3.90;;;;;;;;;;4987702;28;20333;-61
2022/08/20 14:04:51;;;;;;;8.35;3.78;;;;;;;;;;4987906;28;20347;-62
2022/08/20 14:07:16;;;;;;;7.70;3.78;;;;;;;;;;4987366;28;20017;-61
2022/08/20 14:09:44;;;;;;;6.57;3.17;;;;;;;;;;4989137;28;20344;-61
2022/08/20 14:12:10;;;;;;;5.30;3.63;;;;;;;;;;4991726;28;20447;-62
2022/08/20 14:14:35;;;;;;;11.20;3.75;;;;;;;;;;4972987;28;20503;-61
2022/08/20 14:17:39;;;;;;;10.75;3.90;;;;;;;;;;4990253;28;20577;-62
2022/08/20 14:20:13;;;;;;;9.65;3.65;;;;;;;;;;4990321;28;20033;-61
2022/08/20 14:22:39;;;;;;;7.93;3.47;;;;;;;;;;4990570;28;20129;-61
2022/08/20 14:25:06;;;;;;;6.13;3.75;;;;;;;;;;4990121;28;20443;-61
2022/08/20 14:27:32;;;;;;;8.77;3.88;;;;;;;;;;4990988;28;20349;-61
2022/08/20 14:29:59;;;;;;;12.40;3.75;;;;;;;;;;4989866;28;20436;-62
2022/08/20 14:32:25;;;;;;;8.02;3.80;;;;;;;;;;4989998;28;20494;-62
2022/08/20 14:34:50;;;;;;;5.97;3.95;;;;;;;;;;4990767;28;20327;-61
2022/08/20 14:37:17;;;;;;;6.82;3.92;;;;;;;;;;4990286;28;20033;-61
2022/08/20 14:39:46;;;;;;;9.32;3.75;;;;;;;;;;4989897;28;20340;-61
2022/08/20 14:42:11;;;;;;;;;;;;;;;;;;4991603;28;20378;-61
2022/08/20 14:44:36;;;;;;;10.30;3.78;;;;;;;;;;4990688;28;20247;-61
2022/08/20 14:47:21;;;;;;;10.48;3.40;;;;;;;;;;4989561;28;20459;-61